createdAt,value
2019-05-26T00:01:20.307Z,21.77
2019-05-26T00:03:49.041Z,23.87
2019-05-26T00:06:17.465Z,24.37
2019-05-26T00:08:46.386Z,24.30
2019-05-26T00:11:14.817Z,26.43
2019-05-26T00:13:43.831Z,24.70
2019-05-26T00:16:12.605Z,25.53
2019-05-26T00:18:41.806Z,27.00
2019-05-26T00:21:10.577Z,27.40
2019-05-26T00:23:39.122Z,28.37
2019-05-26T00:26:08.189Z,27.47
2019-05-26T00:28:36.761Z,31.37
2019-05-26T00:31:05.201Z,27.60
2019-05-26T00:33:33.714Z,33.70
2019-05-26T00:36:04.046Z,27.80
2019-05-26T00:38:33.202Z,26.73
2019-05-26T00:41:01.762Z,27.70
2019-05-26T00:43:30.626Z,29.77
2019-05-26T00:45:59.113Z,27.93
2019-05-26T00:48:27.621Z,26.17
2019-05-26T00:50:56.092Z,26.97
2019-05-26T00:53:24.781Z,27.30
2019-05-26T00:55:53.213Z,29.27
2019-05-26T00:58:22.244Z,28.87
2019-05-26T01:00:51.039Z,32.60
2019-05-26T01:03:19.549Z,26.27
2019-05-26T01:05:48.070Z,27.50
2019-05-26T01:08:16.841Z,32.33
2019-05-26T01:10:45.723Z,23.73
2019-05-26T01:13:14.425Z,48.63
2019-05-26T01:15:42.840Z,42.07
2019-05-26T01:18:11.327Z,25.87
2019-05-26T01:20:39.878Z,28.40
2019-05-26T01:23:08.447Z,53.60
2019-05-26T01:25:37.158Z,30.13
2019-05-26T01:28:05.941Z,49.17
2019-05-26T01:30:36.534Z,49.13
2019-05-26T01:33:06.114Z,34.40
2019-05-26T01:35:37.210Z,29.03
2019-05-26T01:38:22.308Z,33.13
2019-05-26T01:40:39.030Z,87.50
2019-05-26T01:43:07.688Z,47.27
2019-05-26T01:45:36.446Z,50.07
2019-05-26T01:48:06.340Z,77.57
2019-05-26T01:50:34.780Z,83.40
2019-05-26T01:53:03.723Z,80.47
2019-05-26T01:55:32.142Z,80.83
2019-05-26T01:58:00.933Z,69.93
2019-05-26T02:00:29.686Z,55.83
2019-05-26T02:02:58.281Z,70.67
2019-05-26T02:05:26.782Z,54.67
2019-05-26T02:07:55.543Z,60.93
2019-05-26T02:10:23.964Z,40.47
2019-05-26T02:12:52.691Z,42.83
2019-05-26T02:15:21.973Z,49.87
2019-05-26T02:17:50.940Z,45.30
2019-05-26T02:20:19.600Z,59.73
2019-05-26T02:22:48.027Z,62.27
2019-05-26T02:25:17.190Z,74.37
2019-05-26T02:27:45.673Z,50.90
2019-05-26T02:30:15.663Z,49.13
2019-05-26T02:32:44.461Z,93.67
2019-05-26T02:35:13.874Z,42.63
2019-05-26T02:37:43.012Z,33.73
2019-05-26T02:40:30.991Z,63.23
2019-05-26T02:42:59.791Z,62.80
2019-05-26T02:45:28.647Z,59.40
2019-05-26T02:47:57.209Z,59.80
2019-05-26T02:50:26.049Z,67.03
2019-05-26T02:52:54.854Z,63.27
2019-05-26T02:55:24.297Z,96.10
2019-05-26T02:57:53.263Z,55.43
2019-05-26T03:00:36.854Z,55.80
2019-05-26T03:03:05.590Z,40.57
2019-05-26T03:05:34.421Z,57.70
2019-05-26T03:08:03.804Z,36.07
2019-05-26T03:10:34.625Z,40.43
2019-05-26T03:13:05.000Z,46.00
2019-05-26T03:15:54.292Z,29.00
2019-05-26T03:18:22.684Z,37.33
2019-05-26T03:20:52.414Z,58.20
2019-05-26T03:23:20.821Z,57.33
2019-05-26T03:25:49.242Z,45.73
2019-05-26T03:28:18.205Z,84.60
2019-05-26T03:30:46.859Z,62.07
2019-05-26T03:33:15.667Z,54.93
2019-05-26T03:35:44.425Z,36.80
2019-05-26T03:38:13.133Z,56.37
2019-05-26T03:40:41.559Z,71.43
2019-05-26T03:43:10.071Z,104.83
2019-05-26T03:45:44.370Z,63.00
2019-05-26T03:48:12.856Z,87.43
2019-05-26T03:50:41.643Z,93.97
2019-05-26T03:53:11.561Z,74.77
2019-05-26T03:55:40.051Z,78.10
2019-05-26T03:58:08.489Z,50.47
2019-05-26T04:00:37.086Z,44.00
2019-05-26T04:03:06.193Z,56.87
2019-05-26T04:05:34.990Z,50.57
2019-05-26T04:08:05.363Z,35.33
2019-05-26T04:10:34.060Z,39.83
2019-05-26T04:13:02.762Z,50.43
2019-05-26T04:15:31.319Z,51.80
2019-05-26T04:17:59.879Z,50.43
2019-05-26T04:20:28.636Z,47.73
2019-05-26T04:22:57.370Z,29.13
2019-05-26T04:25:26.167Z,34.17
2019-05-26T04:27:54.961Z,43.57
2019-05-26T04:30:23.393Z,39.43
2019-05-26T04:32:52.111Z,25.53
2019-05-26T04:35:21.012Z,30.13
2019-05-26T04:37:49.503Z,20.60
2019-05-26T04:40:26.460Z,20.00
2019-05-26T04:42:49.333Z,14.63
2019-05-26T04:45:19.647Z,15.60
2019-05-26T04:47:48.067Z,26.87
2019-05-26T04:50:16.731Z,32.70
2019-05-26T04:53:04.374Z,13.23
2019-05-26T04:55:16.226Z,23.53
2019-05-26T04:57:44.817Z,23.77
2019-05-26T05:00:14.176Z,19.03
2019-05-26T05:02:42.929Z,14.93
2019-05-26T05:05:12.300Z,13.30
2019-05-26T05:07:41.320Z,14.87
2019-05-26T05:10:10.690Z,10.27
2019-05-26T05:12:39.174Z,29.77
2019-05-26T05:15:08.459Z,13.30
2019-05-26T05:17:37.537Z,13.20
2019-05-26T05:20:09.903Z,11.00
2019-05-26T05:22:38.847Z,9.40
2019-05-26T05:25:14.926Z,9.87
2019-05-26T05:27:40.894Z,9.00
2019-05-26T05:30:10.595Z,8.63
2019-05-26T05:32:39.514Z,8.43
2019-05-26T05:35:09.497Z,9.30
2019-05-26T05:37:38.053Z,9.03
2019-05-26T05:40:11.057Z,9.50
2019-05-26T05:42:39.802Z,9.83
2019-05-26T05:45:10.553Z,8.63
2019-05-26T05:47:38.986Z,10.37
2019-05-26T05:50:26.749Z,9.23
2019-05-26T05:52:55.714Z,9.00
2019-05-26T05:55:24.783Z,9.30
2019-05-26T05:57:53.647Z,8.53
2019-05-26T06:00:23.375Z,9.53
2019-05-26T06:02:52.233Z,9.53
2019-05-26T06:05:20.854Z,8.97
2019-05-26T06:07:49.953Z,13.67
2019-05-26T06:10:19.217Z,8.50
2019-05-26T06:12:47.989Z,8.23
2019-05-26T06:15:17.674Z,7.53
2019-05-26T06:17:47.329Z,7.00
2019-05-26T06:20:17.446Z,7.27
2019-05-26T06:23:05.617Z,10.23
2019-05-26T06:25:34.010Z,8.60
2019-05-26T06:28:02.109Z,7.27
2019-05-26T06:30:30.702Z,7.60
2019-05-26T06:32:59.145Z,7.77
2019-05-26T06:35:27.309Z,8.13
2019-05-26T06:37:55.392Z,7.90
2019-05-26T06:40:23.494Z,7.60
2019-05-26T06:42:51.843Z,7.23
2019-05-26T06:45:20.738Z,11.40
2019-05-26T06:47:48.825Z,10.10
2019-05-26T06:50:17.393Z,7.83
2019-05-26T06:52:45.887Z,9.43
2019-05-26T06:55:14.770Z,9.37
2019-05-26T06:57:43.181Z,7.60
2019-05-26T07:00:11.845Z,8.47
2019-05-26T07:02:39.940Z,8.27
2019-05-26T07:05:08.103Z,7.77
2019-05-26T07:07:36.609Z,10.17
2019-05-26T07:10:06.568Z,8.33
2019-05-26T07:12:35.347Z,9.00
2019-05-26T07:15:05.611Z,7.83
2019-05-26T07:17:34.022Z,8.47
2019-05-26T07:20:02.453Z,8.50
2019-05-26T07:22:31.114Z,8.93
2019-05-26T07:24:59.227Z,8.30
2019-05-26T07:27:27.300Z,7.30
2019-05-26T07:29:55.736Z,7.67
2019-05-26T07:32:24.143Z,8.53
2019-05-26T07:34:52.896Z,8.67
2019-05-26T07:37:21.309Z,8.07
2019-05-26T07:39:49.730Z,9.20
2019-05-26T07:42:18.253Z,13.10
2019-05-26T07:44:46.677Z,8.30
2019-05-26T07:47:15.099Z,9.93
2019-05-26T07:49:43.184Z,8.60
2019-05-26T07:52:11.266Z,9.60
2019-05-26T07:54:39.365Z,10.70
2019-05-26T07:57:07.449Z,11.43
2019-05-26T07:59:35.541Z,10.40
2019-05-26T08:02:04.124Z,11.20
2019-05-26T08:04:32.565Z,10.47
2019-05-26T08:07:00.999Z,10.67
2019-05-26T08:09:29.456Z,10.00
2019-05-26T08:11:57.936Z,10.63
2019-05-26T08:14:26.362Z,9.93
2019-05-26T08:16:54.781Z,9.50
2019-05-26T08:19:23.280Z,10.53
2019-05-26T08:21:54.482Z,9.77
2019-05-26T08:24:21.845Z,9.93
2019-05-26T08:26:49.937Z,10.27
2019-05-26T08:29:18.366Z,9.67
2019-05-26T08:31:46.786Z,10.47
2019-05-26T08:34:14.868Z,13.30
2019-05-26T08:36:42.989Z,12.43
2019-05-26T08:39:11.472Z,10.83
2019-05-26T08:41:39.910Z,11.57
2019-05-26T08:44:08.146Z,10.73
2019-05-26T08:46:36.568Z,10.40
2019-05-26T08:49:05.427Z,9.63
2019-05-26T08:51:33.525Z,10.40
2019-05-26T08:54:01.953Z,10.20
2019-05-26T08:56:30.377Z,11.27
2019-05-26T08:58:58.790Z,10.23
2019-05-26T09:01:27.221Z,13.13
2019-05-26T09:03:55.653Z,12.50
2019-05-26T09:06:24.087Z,9.87
2019-05-26T09:08:52.741Z,9.77
2019-05-26T09:11:21.076Z,12.67
2019-05-26T09:13:49.165Z,9.77
2019-05-26T09:16:17.596Z,9.30
2019-05-26T09:18:46.011Z,7.97
2019-05-26T09:21:14.436Z,9.10
2019-05-26T09:23:42.853Z,7.70
2019-05-26T09:26:11.277Z,8.27
2019-05-26T09:28:39.428Z,7.40
2019-05-26T09:31:07.854Z,6.70
2019-05-26T09:33:36.269Z,7.63
2019-05-26T09:36:04.685Z,7.50
2019-05-26T09:38:33.120Z,6.80
2019-05-26T09:41:01.537Z,5.87
2019-05-26T09:43:29.953Z,6.60
2019-05-26T09:45:58.426Z,6.63
2019-05-26T09:48:26.840Z,6.43
2019-05-26T09:50:55.265Z,5.80
2019-05-26T09:53:23.688Z,5.57
2019-05-26T09:55:51.771Z,6.20
2019-05-26T09:58:20.652Z,5.20
2019-05-26T10:00:49.087Z,5.07
2019-05-26T10:03:17.782Z,5.27
2019-05-26T10:05:46.209Z,5.87
2019-05-26T10:08:14.289Z,7.63
2019-05-26T10:10:42.716Z,5.40
2019-05-26T10:13:11.133Z,6.37
2019-05-26T10:15:39.222Z,6.17
2019-05-26T10:18:07.649Z,6.60
2019-05-26T10:20:35.734Z,5.47
2019-05-26T10:23:04.168Z,5.30
2019-05-26T10:25:32.597Z,4.60
2019-05-26T10:28:01.021Z,5.27
2019-05-26T10:30:29.461Z,6.73
2019-05-26T10:32:58.658Z,4.87
2019-05-26T10:35:27.441Z,5.13
2019-05-26T10:37:55.876Z,4.30
2019-05-26T10:40:24.287Z,5.50
2019-05-26T10:43:03.467Z,5.27
2019-05-26T10:45:34.305Z,4.47
2019-05-26T10:48:02.459Z,5.67
2019-05-26T10:50:41.568Z,4.97
2019-05-26T10:53:10.122Z,4.23
2019-05-26T10:55:38.661Z,3.60
2019-05-26T10:58:07.265Z,3.83
2019-05-26T11:00:35.759Z,5.50
2019-05-26T11:03:03.843Z,3.60
2019-05-26T11:05:31.926Z,4.17
2019-05-26T11:08:00.439Z,6.77
2019-05-26T11:10:28.925Z,3.90
2019-05-26T11:12:57.349Z,4.30
2019-05-26T11:15:25.429Z,4.47
2019-05-26T11:17:53.856Z,3.73
2019-05-26T11:20:23.061Z,5.07
2019-05-26T11:22:51.613Z,4.03
2019-05-26T11:25:20.201Z,4.37
2019-05-26T11:27:48.786Z,4.57
2019-05-26T11:30:18.055Z,4.33
2019-05-26T11:32:46.751Z,3.63
2019-05-26T11:35:16.766Z,3.10
2019-05-26T11:37:45.186Z,3.03
2019-05-26T11:40:15.106Z,5.07
2019-05-26T11:42:44.929Z,4.10
2019-05-26T11:45:15.030Z,3.10
2019-05-26T11:47:43.206Z,2.87
2019-05-26T11:50:11.821Z,3.20
2019-05-26T11:52:40.065Z,2.93
2019-05-26T11:55:08.288Z,4.03
2019-05-26T11:57:37.535Z,3.20
2019-05-26T12:00:08.734Z,3.10
2019-05-26T12:02:38.470Z,5.40
2019-05-26T12:05:08.500Z,5.63
2019-05-26T12:07:36.936Z,5.27
2019-05-26T12:10:06.300Z,7.10
2019-05-26T12:12:35.161Z,5.97
2019-05-26T12:15:04.817Z,5.30
2019-05-26T12:17:33.037Z,7.93
2019-05-26T12:20:04.851Z,6.13
2019-05-26T12:22:31.453Z,8.97
2019-05-26T12:24:59.628Z,6.27
2019-05-26T12:27:27.793Z,5.13
2019-05-26T12:29:55.986Z,5.23
2019-05-26T12:32:24.428Z,4.20
2019-05-26T12:34:53.421Z,5.97
2019-05-26T12:37:21.865Z,4.60
2019-05-26T12:39:49.965Z,5.63
2019-05-26T12:42:18.127Z,5.00
2019-05-26T12:44:49.582Z,4.30
2019-05-26T12:47:16.609Z,3.47
2019-05-26T12:49:44.827Z,4.23
2019-05-26T12:52:13.733Z,3.50
2019-05-26T12:54:42.342Z,3.30
2019-05-26T12:57:10.833Z,3.10
2019-05-26T12:59:39.339Z,3.23
2019-05-26T13:02:08.061Z,5.83
2019-05-26T13:04:36.498Z,3.20
2019-05-26T13:07:05.168Z,3.47
2019-05-26T13:09:33.589Z,3.43
2019-05-26T13:12:02.016Z,2.70
2019-05-26T13:14:30.538Z,2.47
2019-05-26T13:17:01.486Z,2.10
2019-05-26T13:19:28.856Z,2.27
2019-05-26T13:21:57.328Z,3.30
2019-05-26T13:24:25.901Z,4.13
2019-05-26T13:26:54.081Z,2.30
2019-05-26T13:29:25.668Z,1.93
2019-05-26T13:31:52.914Z,2.40
2019-05-26T13:34:21.492Z,2.50
2019-05-26T13:36:49.931Z,2.17
2019-05-26T13:39:18.369Z,4.27
2019-05-26T13:41:46.940Z,2.80
2019-05-26T13:44:15.555Z,2.30
2019-05-26T13:46:43.809Z,2.27
2019-05-26T13:49:12.336Z,2.50
2019-05-26T13:51:40.834Z,3.73
2019-05-26T13:54:09.373Z,3.60
2019-05-26T13:56:37.613Z,4.00
2019-05-26T13:59:05.928Z,2.30
2019-05-26T14:01:34.156Z,2.63
2019-05-26T14:04:02.319Z,2.47
2019-05-26T14:06:30.494Z,2.60
2019-05-26T14:09:02.074Z,2.83
2019-05-26T14:11:29.285Z,3.00
2019-05-26T14:13:57.964Z,3.73
2019-05-26T14:16:28.073Z,2.67
2019-05-26T14:18:57.371Z,2.87
2019-05-26T14:21:25.905Z,2.33
2019-05-26T14:23:54.204Z,2.83
2019-05-26T14:26:22.379Z,2.40
2019-05-26T14:28:50.835Z,2.47
2019-05-26T14:31:19.368Z,2.43
2019-05-26T14:33:47.826Z,4.60
2019-05-26T14:36:16.282Z,4.90
2019-05-26T14:38:44.762Z,2.80
2019-05-26T14:41:12.859Z,3.40
2019-05-26T14:43:41.327Z,3.67
2019-05-26T14:46:09.776Z,2.90
2019-05-26T14:48:38.293Z,2.37
2019-05-26T14:51:06.852Z,2.47
2019-05-26T14:53:35.265Z,2.70
2019-05-26T14:56:03.760Z,3.77
2019-05-26T14:58:32.316Z,3.03
2019-05-26T15:01:00.781Z,2.13
2019-05-26T15:03:29.234Z,6.03
2019-05-26T15:06:06.000Z,3.77
2019-05-26T15:08:27.953Z,3.37
2019-05-26T15:10:56.385Z,2.50
2019-05-26T15:13:24.811Z,2.63
2019-05-26T15:16:08.903Z,2.23
2019-05-26T15:18:23.410Z,2.17
2019-05-26T15:20:51.845Z,1.90
2019-05-26T15:23:20.306Z,2.33
2019-05-26T15:25:49.611Z,1.97
2019-05-26T15:28:18.019Z,2.23
2019-05-26T15:30:46.463Z,2.33
2019-05-26T15:33:14.941Z,1.80
2019-05-26T15:35:45.043Z,3.43
2019-05-26T15:38:13.769Z,2.23
2019-05-26T15:40:42.201Z,3.07
2019-05-26T15:43:10.618Z,2.80
2019-05-26T15:45:39.097Z,4.00
2019-05-26T15:48:26.848Z,2.03
2019-05-26T15:50:55.341Z,1.90
2019-05-26T15:53:23.770Z,3.13
2019-05-26T15:55:52.229Z,4.90
2019-05-26T15:58:20.668Z,2.03
2019-05-26T16:00:49.108Z,1.90
2019-05-26T16:03:17.532Z,1.70
2019-05-26T16:05:45.966Z,5.13
2019-05-26T16:08:14.931Z,3.73
2019-05-26T16:10:43.462Z,4.77
2019-05-26T16:13:11.870Z,1.80
2019-05-26T16:15:40.550Z,2.00
2019-05-26T16:18:08.985Z,2.50
2019-05-26T16:20:37.418Z,2.23
2019-05-26T16:23:08.742Z,2.10
2019-05-26T16:25:36.100Z,2.10
2019-05-26T16:28:04.521Z,2.40
2019-05-26T16:30:32.941Z,4.27
2019-05-26T16:33:01.430Z,2.07
2019-05-26T16:35:29.875Z,2.20
2019-05-26T16:37:58.343Z,3.00
2019-05-26T16:40:26.770Z,6.03
2019-05-26T16:42:55.197Z,2.27
2019-05-26T16:45:23.739Z,3.13
2019-05-26T16:47:52.197Z,3.83
2019-05-26T16:50:20.648Z,2.63
2019-05-26T16:52:49.116Z,1.90
2019-05-26T16:55:17.664Z,1.80
2019-05-26T16:57:46.085Z,5.00
2019-05-26T17:00:14.792Z,2.27
2019-05-26T17:02:43.215Z,3.73
2019-05-26T17:05:11.766Z,2.63
2019-05-26T17:07:40.189Z,2.00
2019-05-26T17:10:09.052Z,3.43
2019-05-26T17:12:37.505Z,3.17
2019-05-26T17:15:09.512Z,3.77
2019-05-26T17:17:37.940Z,2.20
2019-05-26T17:20:11.538Z,3.93
2019-05-26T17:22:40.094Z,3.40
2019-05-26T17:25:09.147Z,2.70
2019-05-26T17:27:37.633Z,2.70
2019-05-26T17:30:10.491Z,2.70
2019-05-26T17:32:38.925Z,2.60
2019-05-26T17:35:09.190Z,3.30
2019-05-26T17:37:37.619Z,3.17
2019-05-26T17:40:06.793Z,3.37
2019-05-26T17:42:35.517Z,3.10
2019-05-26T17:45:06.105Z,2.70
2019-05-26T17:47:34.565Z,2.77
2019-05-26T17:50:04.954Z,4.10
2019-05-26T17:52:33.457Z,2.70
2019-05-26T17:55:02.008Z,3.80
2019-05-26T17:57:31.715Z,2.93
2019-05-26T18:00:00.118Z,2.70
2019-05-26T18:02:28.557Z,3.27
2019-05-26T18:04:56.981Z,4.07
2019-05-26T18:07:25.397Z,2.77
2019-05-26T18:09:53.853Z,3.27
2019-05-26T18:12:22.283Z,2.80
2019-05-26T18:14:50.713Z,2.83
2019-05-26T18:17:19.141Z,2.73
2019-05-26T18:19:47.545Z,2.90
2019-05-26T18:22:15.981Z,2.93
2019-05-26T18:24:54.239Z,2.83
2019-05-26T18:27:14.846Z,4.87
2019-05-26T18:29:43.365Z,4.27
2019-05-26T18:32:11.874Z,3.60
2019-05-26T18:34:40.333Z,3.13
2019-05-26T18:37:09.092Z,3.27
2019-05-26T18:39:37.510Z,3.10
2019-05-26T18:42:05.984Z,3.57
2019-05-26T18:44:34.436Z,4.93
2019-05-26T18:47:02.842Z,4.17
2019-05-26T18:49:32.292Z,5.50
2019-05-26T18:52:00.732Z,3.90
2019-05-26T18:54:29.171Z,3.73
2019-05-26T18:56:57.695Z,3.83
2019-05-26T18:59:26.113Z,3.63
2019-05-26T19:01:54.531Z,4.00
2019-05-26T19:04:22.960Z,4.07
2019-05-26T19:06:51.665Z,4.27
2019-05-26T19:09:20.081Z,4.50
2019-05-26T19:11:48.495Z,4.07
2019-05-26T19:14:16.929Z,3.70
2019-05-26T19:16:45.341Z,5.07
2019-05-26T19:19:14.078Z,5.20
2019-05-26T19:21:42.494Z,4.20
2019-05-26T19:24:10.919Z,4.80
2019-05-26T19:26:39.411Z,4.27
2019-05-26T19:29:07.824Z,4.07
2019-05-26T19:31:36.237Z,4.27
2019-05-26T19:34:04.793Z,4.33
2019-05-26T19:36:33.238Z,4.50
2019-05-26T19:39:01.649Z,12.50
2019-05-26T19:41:30.125Z,6.00
2019-05-26T19:43:58.578Z,9.83
2019-05-26T19:46:27.268Z,4.40
2019-05-26T19:48:55.697Z,3.80
2019-05-26T19:51:24.167Z,9.80
2019-05-26T19:53:52.603Z,5.63
2019-05-26T19:56:21.022Z,4.30
2019-05-26T19:58:49.826Z,9.13
2019-05-26T20:01:18.256Z,4.73
2019-05-26T20:03:46.668Z,7.40
2019-05-26T20:06:15.079Z,8.00
2019-05-26T20:08:43.911Z,4.70
2019-05-26T20:11:12.334Z,5.27
2019-05-26T20:13:40.769Z,18.00
2019-05-26T20:16:09.176Z,7.90
2019-05-26T20:18:37.621Z,8.38
2019-05-26T20:21:06.024Z,8.73
2019-05-26T20:23:34.441Z,9.27
2019-05-26T20:26:02.959Z,4.97
2019-05-26T20:28:31.366Z,8.27
2019-05-26T20:30:59.795Z,6.10
2019-05-26T20:33:28.246Z,12.20
2019-05-26T20:35:56.729Z,14.20
2019-05-26T20:38:25.174Z,6.73
2019-05-26T20:40:53.589Z,7.00
2019-05-26T20:43:24.914Z,5.13
2019-05-26T20:46:11.491Z,4.97
2019-05-26T20:48:40.242Z,11.90
2019-05-26T20:51:08.737Z,17.83
2019-05-26T20:53:40.406Z,7.43
2019-05-26T20:56:07.322Z,4.33
2019-05-26T20:58:35.807Z,13.50
2019-05-26T21:01:04.330Z,4.57
2019-05-26T21:03:32.749Z,8.93
2019-05-26T21:06:01.534Z,4.37
2019-05-26T21:08:30.299Z,4.60
2019-05-26T21:10:59.112Z,14.70
2019-05-26T21:13:27.670Z,15.50
2019-05-26T21:15:56.096Z,5.33
2019-05-26T21:18:24.827Z,12.87
2019-05-26T21:20:53.324Z,4.20
2019-05-26T21:23:22.736Z,8.33
2019-05-26T21:25:52.026Z,16.33
2019-05-26T21:28:20.509Z,7.10
2019-05-26T21:30:48.941Z,4.37
2019-05-26T21:33:17.682Z,4.00
2019-05-26T21:35:46.291Z,4.50
2019-05-26T21:38:15.150Z,4.13
2019-05-26T21:40:43.992Z,5.03
2019-05-26T21:43:13.652Z,5.03
2019-05-26T21:45:42.097Z,4.73
2019-05-26T21:48:10.512Z,7.47
2019-05-26T21:50:38.937Z,5.43
2019-05-26T21:53:07.688Z,10.40
2019-05-26T21:55:36.542Z,4.13
2019-05-26T21:58:05.825Z,9.43
2019-05-26T22:00:39.124Z,4.30
2019-05-26T22:03:07.725Z,4.27
2019-05-26T22:05:36.340Z,6.27
2019-05-26T22:08:04.757Z,5.30
2019-05-26T22:10:33.194Z,5.00
2019-05-26T22:13:01.609Z,3.90
2019-05-26T22:15:30.043Z,4.40
2019-05-26T22:17:58.486Z,4.00
2019-05-26T22:20:26.904Z,4.60
2019-05-26T22:22:55.599Z,3.80
2019-05-26T22:25:24.564Z,5.00
2019-05-26T22:27:53.033Z,4.80
2019-05-26T22:30:21.587Z,6.07
2019-05-26T22:32:50.930Z,6.27
2019-05-26T22:35:19.997Z,4.63
2019-05-26T22:37:48.420Z,6.80
2019-05-26T22:40:17.857Z,10.17
2019-05-26T22:42:47.198Z,4.40
2019-05-26T22:45:16.088Z,7.20
2019-05-26T22:47:45.499Z,6.93
2019-05-26T22:50:14.524Z,13.87
2019-05-26T22:52:43.018Z,7.83
2019-05-26T22:55:11.501Z,6.53
2019-05-26T22:57:40.239Z,6.10
2019-05-26T23:00:10.759Z,5.17
2019-05-26T23:02:40.180Z,4.87
2019-05-26T23:05:09.041Z,5.30
2019-05-26T23:07:37.507Z,5.50
2019-05-26T23:10:10.197Z,5.83
2019-05-26T23:12:38.681Z,6.67
2019-05-26T23:15:09.849Z,6.53
2019-05-26T23:17:38.888Z,6.67
2019-05-26T23:20:08.047Z,5.20
2019-05-26T23:22:36.919Z,5.73
2019-05-26T23:25:06.933Z,5.47
2019-05-26T23:27:35.409Z,14.47
2019-05-26T23:30:05.985Z,16.20
2019-05-26T23:32:34.402Z,5.73
2019-05-26T23:35:03.484Z,5.67
2019-05-26T23:37:32.276Z,5.93
2019-05-26T23:40:00.689Z,5.10
2019-05-26T23:42:29.121Z,5.53
2019-05-26T23:44:57.546Z,10.60
2019-05-26T23:47:25.977Z,6.73
2019-05-26T23:49:54.863Z,9.13
2019-05-26T23:52:23.789Z,6.67
2019-05-26T23:54:52.401Z,9.77
2019-05-26T23:57:21.609Z,5.80
2019-05-26T23:59:50.013Z,6.10
